createdAt,value
2022-10-21T00:01:36.380Z,92.40
2022-10-21T00:03:45.340Z,92.60
2022-10-21T00:05:52.925Z,92.60
2022-10-21T00:07:59.849Z,92.80
2022-10-21T00:10:07.852Z,92.60
2022-10-21T00:12:14.677Z,92.20
2022-10-21T00:14:21.447Z,92.00
2022-10-21T00:16:28.220Z,91.80
2022-10-21T00:18:35.862Z,91.60
2022-10-21T00:20:47.039Z,91.70
2022-10-21T00:22:53.793Z,92.00
2022-10-21T00:25:00.580Z,92.10
2022-10-21T00:27:07.694Z,92.30
2022-10-21T00:29:14.590Z,91.90
2022-10-21T00:31:21.769Z,91.80
2022-10-21T00:33:29.564Z,91.40
2022-10-21T00:35:37.617Z,91.00
2022-10-21T00:37:45.976Z,90.60
2022-10-21T00:39:54.077Z,90.30
2022-10-21T00:42:00.849Z,90.10
2022-10-21T00:44:10.078Z,89.80
2022-10-21T00:46:19.512Z,89.60
2022-10-21T00:48:32.276Z,89.30
2022-10-21T00:50:42.829Z,88.60
2022-10-21T00:52:51.452Z,88.50
2022-10-21T00:55:01.463Z,88.00
2022-10-21T00:57:09.251Z,87.50
2022-10-21T00:59:17.247Z,87.60
2022-10-21T01:01:25.141Z,87.80
2022-10-21T01:03:34.277Z,87.80
2022-10-21T01:05:42.369Z,87.20
2022-10-21T01:07:53.248Z,87.40
2022-10-21T01:10:00.072Z,86.90
2022-10-21T01:12:09.553Z,86.80
2022-10-21T01:14:55.500Z,86.60
2022-10-21T01:17:20.383Z,85.80
2022-10-21T01:20:11.351Z,85.50
2022-10-21T01:22:31.691Z,85.40
2022-10-21T01:25:06.374Z,84.50
2022-10-21T01:27:33.051Z,83.70
2022-10-21T01:30:18.894Z,83.50
2022-10-21T01:32:35.031Z,81.00
2022-10-21T01:34:47.696Z,81.10
2022-10-21T01:36:58.048Z,81.70
2022-10-21T01:39:16.134Z,81.20
2022-10-21T01:41:28.128Z,80.60
2022-10-21T01:43:42.227Z,79.60
2022-10-21T01:45:53.298Z,81.10
2022-10-21T01:48:05.648Z,80.50
2022-10-21T01:50:17.082Z,79.20
2022-10-21T01:52:23.651Z,79.20
2022-10-21T01:54:33.953Z,78.60
2022-10-21T01:56:42.315Z,78.80
2022-10-21T01:58:51.134Z,79.00
2022-10-21T02:01:00.337Z,78.70
2022-10-21T02:03:11.794Z,78.80
2022-10-21T02:05:23.169Z,78.80
2022-10-21T02:07:30.040Z,78.20
2022-10-21T02:09:37.078Z,78.40
2022-10-21T02:11:46.801Z,78.50
2022-10-21T02:14:00.249Z,76.70
2022-10-21T02:16:11.572Z,77.60
2022-10-21T02:18:25.311Z,78.40
2022-10-21T02:20:35.001Z,77.40
2022-10-21T02:22:46.335Z,77.50
2022-10-21T02:24:56.736Z,77.40
2022-10-21T02:27:04.021Z,77.40
2022-10-21T02:29:11.149Z,77.40
2022-10-21T02:31:38.556Z,77.90
2022-10-21T02:33:54.900Z,77.00
2022-10-21T02:36:09.817Z,77.90
2022-10-21T02:38:23.870Z,77.40
2022-10-21T02:40:35.340Z,76.70
2022-10-21T02:42:43.443Z,76.80
2022-10-21T02:44:50.113Z,77.20
2022-10-21T02:46:56.831Z,76.50
2022-10-21T02:49:05.344Z,75.40
2022-10-21T02:51:12.887Z,75.80
2022-10-21T02:53:20.069Z,75.90
2022-10-21T02:55:27.352Z,75.60
2022-10-21T02:57:34.124Z,75.60
2022-10-21T02:59:43.253Z,75.30
2022-10-21T03:01:50.126Z,75.90
2022-10-21T03:03:57.561Z,75.60
2022-10-21T03:06:05.975Z,74.90
2022-10-21T03:08:12.900Z,75.30
2022-10-21T03:10:20.185Z,75.10
2022-10-21T03:12:27.107Z,74.80
2022-10-21T03:14:33.939Z,75.40
2022-10-21T03:16:40.803Z,74.80
2022-10-21T03:18:47.938Z,74.20
2022-10-21T03:20:55.014Z,74.30
2022-10-21T03:23:03.785Z,74.70
2022-10-21T03:25:11.479Z,74.40
2022-10-21T03:27:18.342Z,74.30
2022-10-21T03:29:25.127Z,73.20
2022-10-21T03:31:31.999Z,73.00
2022-10-21T03:33:38.884Z,74.40
2022-10-21T03:35:45.696Z,73.70
2022-10-21T03:37:52.925Z,73.40
2022-10-21T03:40:01.341Z,73.80
2022-10-21T03:42:08.221Z,73.50
2022-10-21T03:44:15.192Z,74.40
2022-10-21T03:46:22.169Z,72.80
2022-10-21T03:48:29.400Z,73.20
2022-10-21T03:50:36.122Z,72.40
2022-10-21T03:52:43.002Z,72.50
2022-10-21T03:54:49.817Z,72.10
2022-10-21T03:56:59.049Z,71.40
2022-10-21T03:59:06.385Z,71.80
2022-10-21T04:01:15.794Z,71.30
2022-10-21T04:03:22.860Z,71.40
2022-10-21T04:05:29.772Z,70.80
2022-10-21T04:07:36.547Z,70.70
2022-10-21T04:09:43.829Z,71.50
2022-10-21T04:11:50.909Z,71.00
2022-10-21T04:13:59.628Z,70.40
2022-10-21T04:16:08.802Z,70.40
2022-10-21T04:18:16.036Z,71.20
2022-10-21T04:20:22.961Z,70.70
2022-10-21T04:22:30.450Z,70.20
2022-10-21T04:24:37.221Z,69.70
2022-10-21T04:26:44.609Z,69.90
2022-10-21T04:28:51.380Z,69.80
2022-10-21T04:30:59.877Z,69.10
2022-10-21T04:33:06.563Z,69.30
2022-10-21T04:35:13.696Z,69.20
2022-10-21T04:37:20.517Z,69.30
2022-10-21T04:39:27.237Z,69.60
2022-10-21T04:41:34.060Z,69.40
2022-10-21T04:43:41.344Z,68.90
2022-10-21T04:45:48.116Z,69.10
2022-10-21T04:47:56.734Z,69.20
2022-10-21T04:50:03.504Z,68.50
2022-10-21T04:52:10.380Z,67.40
2022-10-21T04:54:17.252Z,68.20
2022-10-21T04:56:24.128Z,68.10
2022-10-21T04:58:31.005Z,67.70
2022-10-21T05:00:37.885Z,67.40
2022-10-21T05:02:44.601Z,67.20
2022-10-21T05:04:53.213Z,67.40
2022-10-21T05:06:59.983Z,67.20
2022-10-21T05:09:07.589Z,67.90
2022-10-21T05:11:14.456Z,66.60
2022-10-21T05:13:21.323Z,67.20
2022-10-21T05:15:28.402Z,66.50
2022-10-21T05:17:37.493Z,66.40
2022-10-21T05:19:44.511Z,66.30
2022-10-21T05:21:52.917Z,65.40
2022-10-21T05:23:59.793Z,65.50
2022-10-21T05:26:06.665Z,65.70
2022-10-21T05:28:13.592Z,65.40
2022-10-21T05:30:20.518Z,65.30
2022-10-21T05:32:27.481Z,65.10
2022-10-21T05:34:34.215Z,65.20
2022-10-21T05:36:41.039Z,66.10
2022-10-21T05:38:49.500Z,65.40
2022-10-21T05:40:56.220Z,63.60
2022-10-21T05:43:03.040Z,64.00
2022-10-21T05:45:11.249Z,64.40
2022-10-21T05:47:18.176Z,65.00
2022-10-21T05:49:25.055Z,63.70
2022-10-21T05:51:31.872Z,64.90
2022-10-21T05:53:40.846Z,64.70
2022-10-21T05:55:57.246Z,64.80
2022-10-21T05:58:04.273Z,64.70
2022-10-21T06:00:12.223Z,64.70
2022-10-21T06:02:20.122Z,63.80
2022-10-21T06:04:26.996Z,64.40
2022-10-21T06:06:33.871Z,64.30
2022-10-21T06:08:42.069Z,64.10
2022-10-21T06:10:50.885Z,64.00
2022-10-21T06:12:57.727Z,64.20
2022-10-21T06:15:04.752Z,64.10
2022-10-21T06:17:11.571Z,63.90
2022-10-21T06:19:18.495Z,63.50
2022-10-21T06:21:25.320Z,62.70
2022-10-21T06:23:32.551Z,63.30
2022-10-21T06:25:39.487Z,63.30
2022-10-21T06:27:47.940Z,63.30
2022-10-21T06:29:55.839Z,63.10
2022-10-21T06:32:02.713Z,63.20
2022-10-21T06:34:09.686Z,62.30
2022-10-21T06:36:16.515Z,62.40
2022-10-21T06:38:23.748Z,62.40
2022-10-21T06:40:30.569Z,62.80
2022-10-21T06:42:39.698Z,62.30
2022-10-21T06:44:48.159Z,62.50
2022-10-21T06:46:55.289Z,62.30
2022-10-21T06:49:02.041Z,63.00
2022-10-21T06:51:10.778Z,63.80
2022-10-21T06:53:17.805Z,63.90
2022-10-21T06:55:24.836Z,64.20
2022-10-21T06:57:31.758Z,64.70
2022-10-21T06:59:38.583Z,64.60
2022-10-21T07:01:59.852Z,64.50
2022-10-21T07:04:07.229Z,64.40
2022-10-21T07:06:14.309Z,62.10
2022-10-21T07:08:22.543Z,63.30
2022-10-21T07:10:43.471Z,63.30
2022-10-21T07:12:50.189Z,63.00
2022-10-21T07:14:57.425Z,62.60
2022-10-21T07:17:05.942Z,62.80
2022-10-21T07:19:14.351Z,63.10
2022-10-21T07:21:23.067Z,63.20
2022-10-21T07:23:29.889Z,63.40
2022-10-21T07:25:36.662Z,63.80
2022-10-21T07:27:46.161Z,63.80
2022-10-21T07:29:54.351Z,63.70
2022-10-21T07:32:01.685Z,62.80
2022-10-21T07:34:11.685Z,63.00
2022-10-21T07:36:20.402Z,62.50
2022-10-21T07:38:27.076Z,62.10
2022-10-21T07:40:34.663Z,61.70
2022-10-21T07:42:41.485Z,61.80
2022-10-21T07:44:48.617Z,61.40
2022-10-21T07:46:56.413Z,61.00
2022-10-21T07:49:03.234Z,60.80
2022-10-21T07:51:14.360Z,61.10
2022-10-21T07:53:22.669Z,61.60
2022-10-21T07:55:29.644Z,62.10
2022-10-21T07:57:36.875Z,62.00
2022-10-21T07:59:43.806Z,61.70
2022-10-21T08:01:51.198Z,61.20
2022-10-21T08:03:59.239Z,61.50
2022-10-21T08:06:06.884Z,61.90
2022-10-21T08:08:15.406Z,62.50
2022-10-21T08:10:23.244Z,62.50
2022-10-21T08:12:30.068Z,62.50
2022-10-21T08:14:37.810Z,62.60
2022-10-21T08:16:45.147Z,63.00
2022-10-21T08:18:52.481Z,64.10
2022-10-21T08:21:01.968Z,63.90
2022-10-21T08:23:08.944Z,63.90
2022-10-21T08:25:18.178Z,64.40
2022-10-21T08:27:25.303Z,65.00
2022-10-21T08:29:34.276Z,65.70
2022-10-21T08:31:43.700Z,65.70
2022-10-21T08:33:51.715Z,65.10
2022-10-21T08:35:58.592Z,65.30
2022-10-21T08:40:19.565Z,65.30
2022-10-21T08:42:27.863Z,65.10
2022-10-21T08:44:42.008Z,65.00
2022-10-21T08:46:54.844Z,64.70
2022-10-21T08:49:08.658Z,64.80
2022-10-21T08:51:26.032Z,64.80
2022-10-21T08:53:38.537Z,64.00
2022-10-21T08:55:49.046Z,63.40
2022-10-21T08:57:56.431Z,63.60
2022-10-21T09:00:03.255Z,63.50
2022-10-21T09:02:27.280Z,63.90
2022-10-21T09:04:46.289Z,63.80
2022-10-21T09:06:58.185Z,64.00
2022-10-21T09:09:18.716Z,63.90
2022-10-21T09:11:36.251Z,64.60
2022-10-21T09:13:59.049Z,65.40
2022-10-21T09:16:13.451Z,66.40
2022-10-21T09:18:36.656Z,66.50
2022-10-21T09:21:00.541Z,66.00
2022-10-21T09:23:27.279Z,65.90
2022-10-21T09:25:37.369Z,65.30
2022-10-21T09:27:55.396Z,66.00
2022-10-21T09:30:05.723Z,67.00
2022-10-21T09:32:20.211Z,67.50
2022-10-21T09:34:40.359Z,68.20
2022-10-21T09:36:49.937Z,67.90
2022-10-21T09:39:01.453Z,67.40
2022-10-21T09:41:10.507Z,67.40
2022-10-21T09:43:27.917Z,65.90
2022-10-21T09:45:37.353Z,65.90
2022-10-21T09:47:44.688Z,65.70
2022-10-21T09:50:06.785Z,66.00
2022-10-21T09:52:16.407Z,66.60
2022-10-21T09:54:26.506Z,67.00
2022-10-21T09:56:39.335Z,67.30
2022-10-21T09:58:59.661Z,67.50
2022-10-21T10:01:08.379Z,68.30
2022-10-21T10:03:15.416Z,68.60
2022-10-21T10:05:39.439Z,68.90
2022-10-21T10:07:46.411Z,69.00
2022-10-21T10:09:53.183Z,69.50
2022-10-21T10:12:03.949Z,69.50
2022-10-21T10:14:30.738Z,69.70
2022-10-21T10:16:37.817Z,70.10
2022-10-21T10:18:45.359Z,70.60
2022-10-21T10:21:08.719Z,71.00
2022-10-21T10:23:22.044Z,71.90
2022-10-21T10:25:36.804Z,71.90
2022-10-21T10:27:51.357Z,72.80
2022-10-21T10:30:01.630Z,73.30
2022-10-21T10:32:17.599Z,74.70
2022-10-21T10:34:25.807Z,76.40
2022-10-21T10:36:37.412Z,77.00
2022-10-21T10:38:47.491Z,77.10
2022-10-21T10:40:57.836Z,76.80
2022-10-21T10:43:10.713Z,77.40
2022-10-21T10:45:20.711Z,78.20
2022-10-21T10:47:32.194Z,80.60
2022-10-21T10:49:41.832Z,79.20
2022-10-21T10:51:51.370Z,79.10
2022-10-21T10:54:20.364Z,78.70
2022-10-21T10:56:32.459Z,77.90
2022-10-21T10:58:43.327Z,78.20
2022-10-21T11:00:55.239Z,78.90
2022-10-21T11:03:07.319Z,79.30
2022-10-21T11:05:26.684Z,80.30
2022-10-21T11:07:40.868Z,80.20
2022-10-21T11:09:48.624Z,80.10
2022-10-21T11:11:57.391Z,79.80
2022-10-21T11:14:04.436Z,80.00
2022-10-21T11:16:29.477Z,80.40
2022-10-21T11:18:40.800Z,81.70
2022-10-21T11:20:55.459Z,81.20
2022-10-21T11:23:17.286Z,81.80
2022-10-21T11:25:26.819Z,82.30
2022-10-21T11:27:50.590Z,82.10
2022-10-21T11:30:05.928Z,81.20
2022-10-21T11:32:27.891Z,80.80
2022-10-21T11:34:38.350Z,81.00
2022-10-21T11:36:57.209Z,82.90
2022-10-21T11:39:32.034Z,81.70
2022-10-21T11:41:43.005Z,82.70
2022-10-21T11:43:57.710Z,83.30
2022-10-21T11:46:10.579Z,83.90
2022-10-21T11:48:29.740Z,84.70
2022-10-21T11:50:43.783Z,85.60
2022-10-21T11:53:15.335Z,85.60
2022-10-21T11:55:39.772Z,85.60
2022-10-21T11:57:56.833Z,85.20
2022-10-21T12:00:13.713Z,85.20
2022-10-21T12:02:24.399Z,85.10
2022-10-21T12:04:44.133Z,85.30
2022-10-21T12:06:59.557Z,85.20
2022-10-21T12:09:09.095Z,85.00
2022-10-21T12:11:20.680Z,85.40
2022-10-21T12:13:32.210Z,85.40
2022-10-21T12:15:44.109Z,85.90
2022-10-21T12:17:52.980Z,86.40
2022-10-21T12:20:03.640Z,86.30
2022-10-21T12:22:13.852Z,85.50
2022-10-21T12:24:31.315Z,85.60
2022-10-21T12:26:43.839Z,86.10
2022-10-21T12:28:58.685Z,86.50
2022-10-21T12:31:14.311Z,86.90
2022-10-21T12:33:28.816Z,87.20
2022-10-21T12:35:54.225Z,87.80
2022-10-21T12:38:25.789Z,88.90
2022-10-21T12:40:41.318Z,89.10
2022-10-21T12:42:51.321Z,89.00
2022-10-21T12:44:58.180Z,88.90
2022-10-21T12:47:07.817Z,89.10
2022-10-21T12:49:34.153Z,89.10
2022-10-21T12:51:50.505Z,90.00
2022-10-21T12:54:01.933Z,89.70
2022-10-21T12:56:10.281Z,89.80
2022-10-21T12:58:35.235Z,90.00
2022-10-21T13:00:57.172Z,90.40
2022-10-21T13:03:05.469Z,90.70
2022-10-21T13:05:12.865Z,90.70
2022-10-21T13:08:08.145Z,90.90
2022-10-21T13:10:35.397Z,91.10
2022-10-21T13:12:42.248Z,91.50
2022-10-21T13:14:51.071Z,91.40
2022-10-21T13:17:16.662Z,91.40
2022-10-21T13:19:38.914Z,91.50
2022-10-21T13:21:48.237Z,92.00
2022-10-21T13:23:59.370Z,91.70
2022-10-21T13:26:28.046Z,92.00
2022-10-21T13:28:35.131Z,92.20
2022-10-21T13:30:44.604Z,91.80
2022-10-21T13:33:04.150Z,91.60
2022-10-21T13:35:32.884Z,91.50
2022-10-21T13:37:42.429Z,91.20
2022-10-21T13:39:54.862Z,91.10
2022-10-21T13:42:05.935Z,91.40
2022-10-21T13:44:28.835Z,91.50
2022-10-21T13:46:43.270Z,91.90
2022-10-21T13:48:51.646Z,91.80
2022-10-21T13:50:58.726Z,91.80
2022-10-21T13:53:24.545Z,91.50
2022-10-21T13:55:33.517Z,91.40
2022-10-21T13:57:40.551Z,91.40
2022-10-21T13:59:47.931Z,91.20
2022-10-21T14:01:56.495Z,91.10
2022-10-21T14:04:17.604Z,91.20
2022-10-21T14:06:33.139Z,91.70
2022-10-21T14:08:45.879Z,91.50
2022-10-21T14:10:54.562Z,91.70
2022-10-21T14:13:03.175Z,91.90
2022-10-21T14:15:19.114Z,91.90
2022-10-21T14:17:28.496Z,91.90
2022-10-21T14:19:37.724Z,91.60
2022-10-21T14:21:49.104Z,91.70
2022-10-21T14:23:56.392Z,91.50
2022-10-21T14:26:10.328Z,91.80
2022-10-21T14:28:20.786Z,91.80
2022-10-21T14:30:31.091Z,91.50
2022-10-21T14:32:38.759Z,91.20
2022-10-21T14:35:01.814Z,90.70
2022-10-21T14:37:21.465Z,90.50
2022-10-21T14:39:28.235Z,90.40
2022-10-21T14:41:39.977Z,90.40
2022-10-21T14:43:48.330Z,90.20
2022-10-21T14:45:56.384Z,90.60
2022-10-21T14:48:11.450Z,91.30
2022-10-21T14:50:23.499Z,91.00
2022-10-21T14:52:36.663Z,90.70
2022-10-21T14:54:49.126Z,90.20
2022-10-21T14:56:58.966Z,90.20
2022-10-21T14:59:19.116Z,90.40
2022-10-21T15:01:26.234Z,90.00
2022-10-21T15:03:44.989Z,90.20
2022-10-21T15:05:51.812Z,90.40
2022-10-21T15:08:27.461Z,90.50
2022-10-21T15:10:34.437Z,91.40
2022-10-21T15:12:46.535Z,91.20
2022-10-21T15:14:53.356Z,91.50
2022-10-21T15:17:02.981Z,91.40
2022-10-21T15:19:19.187Z,91.20
2022-10-21T15:21:39.272Z,91.00
2022-10-21T15:23:52.968Z,91.10
2022-10-21T15:26:04.646Z,91.20
2022-10-21T15:28:19.863Z,91.60
2022-10-21T15:30:27.303Z,92.10
2022-10-21T15:32:33.972Z,92.30
2022-10-21T15:34:41.317Z,92.30
2022-10-21T15:36:48.144Z,92.40
2022-10-21T15:38:56.418Z,92.20
2022-10-21T15:41:03.215Z,92.40
2022-10-21T15:43:12.543Z,92.30
2022-10-21T15:45:23.228Z,92.40
2022-10-21T15:47:30.033Z,92.50
2022-10-21T15:49:39.052Z,92.60
2022-10-21T15:51:46.336Z,92.60
2022-10-21T15:53:53.163Z,92.60
2022-10-21T15:56:00.047Z,92.50
2022-10-21T15:58:07.062Z,92.60
2022-10-21T16:00:21.925Z,92.70
2022-10-21T16:02:29.003Z,92.70
2022-10-21T16:04:35.828Z,92.60
2022-10-21T16:06:46.951Z,92.10
2022-10-21T16:08:54.486Z,91.70
2022-10-21T16:11:01.499Z,91.10
2022-10-21T16:13:08.392Z,91.10
2022-10-21T16:15:15.996Z,91.30
2022-10-21T16:17:25.267Z,91.30
2022-10-21T16:19:32.293Z,91.10
2022-10-21T16:21:39.425Z,91.10
2022-10-21T16:23:46.246Z,91.30
2022-10-21T16:25:53.891Z,91.80
2022-10-21T16:28:00.664Z,92.40
2022-10-21T16:30:20.848Z,92.70
2022-10-21T16:32:29.477Z,93.10
2022-10-21T16:34:36.797Z,93.10
2022-10-21T16:36:43.570Z,93.20
2022-10-21T16:38:51.777Z,93.20
2022-10-21T16:40:58.548Z,93.20
2022-10-21T16:43:05.933Z,93.20
2022-10-21T16:45:13.372Z,93.30
2022-10-21T16:47:23.533Z,93.40
2022-10-21T16:49:32.143Z,93.70
2022-10-21T16:51:39.525Z,93.80
2022-10-21T16:53:46.686Z,93.80
2022-10-21T16:55:53.940Z,93.60
2022-10-21T16:58:01.538Z,93.50
2022-10-21T17:00:09.156Z,93.50
2022-10-21T17:02:20.348Z,93.60
2022-10-21T17:04:27.121Z,93.70
2022-10-21T17:06:35.887Z,94.00
2022-10-21T17:08:42.705Z,94.20
2022-10-21T17:10:49.895Z,94.30
2022-10-21T17:12:59.739Z,94.60
2022-10-21T17:15:07.029Z,94.50
2022-10-21T17:17:13.845Z,94.40
2022-10-21T17:19:21.234Z,94.60
2022-10-21T17:21:29.795Z,94.60
2022-10-21T17:25:50.252Z,95.10
2022-10-21T17:27:57.704Z,95.10
2022-10-21T17:30:04.464Z,95.30
2022-10-21T17:32:13.392Z,95.40
2022-10-21T17:34:28.861Z,95.50
2022-10-21T17:36:35.784Z,95.50
2022-10-21T17:38:44.657Z,95.60
2022-10-21T17:40:51.562Z,95.60
2022-10-21T17:42:59.377Z,95.70
2022-10-21T17:45:06.269Z,95.60
2022-10-21T17:47:14.879Z,95.60
2022-10-21T17:49:22.150Z,95.60
2022-10-21T17:51:29.435Z,95.60
2022-10-21T17:53:36.258Z,95.40
2022-10-21T17:55:45.284Z,95.50
2022-10-21T17:57:52.064Z,95.70
2022-10-21T17:59:59.111Z,96.00
2022-10-21T18:02:05.909Z,96.00
2022-10-21T18:04:14.163Z,95.90
2022-10-21T18:06:21.088Z,95.90
2022-10-21T18:08:28.015Z,95.80
2022-10-21T18:10:34.736Z,95.80
2022-10-21T18:12:43.452Z,95.80
2022-10-21T18:14:50.389Z,95.80
2022-10-21T18:16:57.253Z,95.60
2022-10-21T18:19:04.090Z,95.30
2022-10-21T18:21:13.766Z,95.00
2022-10-21T18:23:20.549Z,95.00
2022-10-21T18:25:27.413Z,95.00
2022-10-21T18:27:34.218Z,94.90
2022-10-21T18:29:43.211Z,95.50
2022-10-21T18:31:49.981Z,95.60
2022-10-21T18:33:58.701Z,96.10
2022-10-21T18:36:11.668Z,96.00
2022-10-21T18:38:18.696Z,96.70
2022-10-21T18:40:25.415Z,96.90
2022-10-21T18:42:32.452Z,97.10
2022-10-21T18:44:39.278Z,97.30
2022-10-21T18:46:50.176Z,97.40
2022-10-21T18:48:59.433Z,97.40
2022-10-21T18:51:09.723Z,97.40
2022-10-21T18:53:16.645Z,97.50
2022-10-21T18:55:23.572Z,97.60
2022-10-21T18:57:30.755Z,97.60
2022-10-21T18:59:37.577Z,97.60
2022-10-21T19:01:44.433Z,97.30
2022-10-21T19:03:55.013Z,96.90
2022-10-21T19:06:16.847Z,96.90
2022-10-21T19:08:23.711Z,96.80
2022-10-21T19:10:30.590Z,96.90
2022-10-21T19:12:37.717Z,96.80
2022-10-21T19:14:44.662Z,96.70
2022-10-21T19:16:53.265Z,96.60
2022-10-21T19:19:01.820Z,96.50
2022-10-21T19:21:09.175Z,96.40
2022-10-21T19:23:15.929Z,96.40
2022-10-21T19:25:23.019Z,96.40
2022-10-21T19:27:29.830Z,96.30
2022-10-21T19:29:36.927Z,96.20
2022-10-21T19:31:44.103Z,96.20
2022-10-21T19:33:51.481Z,96.20
2022-10-21T19:36:02.971Z,96.30
2022-10-21T19:38:11.629Z,96.40
2022-10-21T19:40:22.497Z,96.50
2022-10-21T19:42:29.727Z,96.50
2022-10-21T19:44:36.397Z,96.20
2022-10-21T19:46:43.682Z,95.80
2022-10-21T19:48:50.967Z,95.80
2022-10-21T19:51:00.771Z,95.80
2022-10-21T19:53:07.535Z,96.00
2022-10-21T19:55:14.509Z,96.20
2022-10-21T19:57:21.392Z,96.30
2022-10-21T19:59:28.195Z,96.40
2022-10-21T20:01:36.476Z,96.60
2022-10-21T20:03:45.128Z,96.90
2022-10-21T20:05:52.208Z,97.00
2022-10-21T20:08:00.672Z,96.90
2022-10-21T20:10:08.730Z,96.80
2022-10-21T20:12:15.649Z,96.90
2022-10-21T20:14:22.674Z,97.00
2022-10-21T20:16:31.186Z,96.90
2022-10-21T20:18:38.321Z,96.60
2022-10-21T20:20:45.550Z,96.50
2022-10-21T20:22:52.439Z,96.40
2022-10-21T20:25:00.990Z,96.30
2022-10-21T20:27:07.917Z,96.20
2022-10-21T20:29:16.473Z,96.20
2022-10-21T20:31:23.765Z,96.60
2022-10-21T20:33:30.843Z,96.70
2022-10-21T20:35:43.659Z,96.90
2022-10-21T20:37:50.532Z,96.80
2022-10-21T20:39:57.355Z,96.60
2022-10-21T20:42:05.919Z,96.50
2022-10-21T20:44:17.147Z,96.20
2022-10-21T20:46:26.075Z,96.20
2022-10-21T20:48:33.507Z,96.50
2022-10-21T20:50:40.277Z,96.80
2022-10-21T20:52:47.561Z,97.00
2022-10-21T20:54:57.200Z,97.10
2022-10-21T20:57:06.684Z,97.40
2022-10-21T20:59:16.177Z,97.40
2022-10-21T21:01:26.282Z,97.30
2022-10-21T21:03:33.156Z,97.20
2022-10-21T21:05:40.073Z,97.30
2022-10-21T21:07:46.945Z,97.30
2022-10-21T21:10:09.197Z,97.30
2022-10-21T21:12:17.900Z,97.30
2022-10-21T21:14:24.988Z,97.50
2022-10-21T21:16:31.956Z,97.60
2022-10-21T21:18:39.545Z,97.80
2022-10-21T21:20:46.524Z,97.60
2022-10-21T21:22:53.753Z,97.70
2022-10-21T21:25:00.886Z,97.80
2022-10-21T21:27:07.760Z,97.90
2022-10-21T21:29:17.551Z,98.30
2022-10-21T21:31:26.220Z,98.30
2022-10-21T21:33:33.301Z,98.20
2022-10-21T21:35:40.072Z,98.40
2022-10-21T21:37:47.150Z,98.40
2022-10-21T21:39:54.024Z,98.50
2022-10-21T21:42:01.271Z,98.30
2022-10-21T21:44:08.754Z,98.50
2022-10-21T21:46:23.606Z,98.70
2022-10-21T21:48:30.670Z,99.10
2022-10-21T21:50:37.613Z,99.40
2022-10-21T21:52:44.888Z,99.30
2022-10-21T21:54:55.457Z,99.30
2022-10-21T21:57:28.659Z,99.40
2022-10-21T21:59:29.325Z,99.40
2022-10-21T22:01:37.929Z,99.10
2022-10-21T22:03:45.020Z,98.90
2022-10-21T22:05:51.845Z,98.60
2022-10-21T22:07:58.669Z,98.50
2022-10-21T22:10:05.798Z,98.30
2022-10-21T22:12:14.478Z,98.40
2022-10-21T22:14:21.850Z,98.50
2022-10-21T22:16:31.058Z,98.40
2022-10-21T22:18:39.592Z,98.50
2022-10-21T22:20:46.363Z,98.30
2022-10-21T22:22:53.681Z,98.50
2022-10-21T22:25:00.523Z,98.70
2022-10-21T22:27:07.859Z,98.70
2022-10-21T22:29:14.682Z,98.70
2022-10-21T22:31:27.423Z,98.70
2022-10-21T22:33:40.175Z,98.60
2022-10-21T22:35:47.028Z,98.80
2022-10-21T22:37:53.852Z,98.70
2022-10-21T22:40:01.196Z,98.80
2022-10-21T22:42:08.174Z,98.80
2022-10-21T22:44:15.602Z,98.80
2022-10-21T22:46:33.242Z,98.60
2022-10-21T22:48:42.692Z,98.40
2022-10-21T22:50:49.850Z,98.50
2022-10-21T22:52:56.704Z,98.70
2022-10-21T22:55:03.801Z,98.70
2022-10-21T22:57:10.570Z,98.80
2022-10-21T22:59:17.700Z,99.10
2022-10-21T23:01:25.036Z,99.10
2022-10-21T23:03:32.228Z,99.00
2022-10-21T23:05:40.739Z,98.90
2022-10-21T23:07:47.912Z,98.90
2022-10-21T23:09:56.856Z,99.00
2022-10-21T23:12:04.067Z,99.00
2022-10-21T23:14:11.608Z,99.00
2022-10-21T23:16:18.758Z,98.80
2022-10-21T23:18:25.510Z,98.90
2022-10-21T23:20:32.692Z,99.00
2022-10-21T23:22:41.369Z,99.00
2022-10-21T23:24:48.693Z,98.80
2022-10-21T23:26:59.045Z,98.80
2022-10-21T23:29:08.548Z,99.00
2022-10-21T23:31:15.256Z,99.10
2022-10-21T23:33:22.283Z,99.10
2022-10-21T23:35:29.064Z,99.20
2022-10-21T23:37:36.083Z,99.20
2022-10-21T23:39:44.648Z,99.40
2022-10-21T23:41:51.943Z,99.60
2022-10-21T23:43:58.805Z,99.50
2022-10-21T23:46:07.831Z,99.40
2022-10-21T23:48:14.770Z,99.90
2022-10-21T23:50:22.040Z,99.90
2022-10-21T23:52:29.018Z,99.90
2022-10-21T23:54:35.890Z,99.90
2022-10-21T23:56:44.358Z,99.90
2022-10-21T23:58:51.279Z,99.90
